Time;durP1;ratioP1;P1;durP2;ratioP2;P2;SDS_P1;SDS_P2;PMS_P1;PMS_P2;Temp;Humidity;BMP_temperature;BMP_pressure;BME280_temperature;BME280_humidity;BME280_pressure;Samples;Min_cycle;Max_cycle;Signal;HPM_P1;HPM_P2
2022/08/26 00:00:29;;;;;;;;;;;21.80;99.90;;;;;;5068532;28;20401;-67
2022/08/26 00:02:55;;;;;;;;;;;21.80;99.90;;;;;;5047703;28;19912;-68
2022/08/26 00:05:20;;;;;;;;;;;21.80;99.90;;;;;;5068383;28;19920;-68
2022/08/26 00:07:46;;;;;;;;;;;21.80;99.90;;;;;;5047755;28;19909;-68
2022/08/26 00:10:12;;;;;;;;;;;21.80;99.90;;;;;;5048919;28;19909;-68
2022/08/26 00:12:38;;;;;;;;;;;21.80;99.90;;;;;;5066262;28;19951;-67
2022/08/26 00:15:05;;;;;;;;;;;21.70;99.90;;;;;;5068948;28;19946;-67
2022/08/26 00:17:30;;;;;;;;;;;21.70;99.90;;;;;;5066580;28;19916;-67
2022/08/26 00:19:56;;;;;;;;;;;21.60;99.90;;;;;;5068697;28;19910;-67
2022/08/26 00:22:21;;;;;;;;;;;21.60;99.90;;;;;;5066616;28;19909;-68
2022/08/26 00:24:47;;;;;;;;;;;21.60;99.90;;;;;;5068343;28;19924;-68
2022/08/26 00:27:12;;;;;;;;;;;21.50;99.90;;;;;;5066631;28;19909;-68
2022/08/26 00:29:38;;;;;;;;;;;21.50;99.90;;;;;;5068447;28;19931;-66
2022/08/26 00:32:03;;;;;;;;;;;21.50;99.90;;;;;;5066480;28;19913;-66
2022/08/26 00:34:28;;;;;;;;;;;21.40;99.90;;;;;;5068413;28;19908;-66
2022/08/26 00:36:54;;;;;;;;;;;21.50;99.90;;;;;;5068129;28;20401;-65
2022/08/26 00:39:20;;;;;;;;;;;21.50;99.90;;;;;;5066566;28;19919;-67
2022/08/26 00:41:45;;;;;;;;;;;21.50;99.90;;;;;;5068351;28;20715;-67
2022/08/26 00:44:11;;;;;;;;;;;21.40;99.90;;;;;;5065284;28;20400;-68
2022/08/26 00:46:40;;;;;;;;;;;21.40;99.90;;;;;;5068078;28;20396;-66
2022/08/26 00:49:12;;;;;;;;;;;21.40;99.90;;;;;;5063556;28;19982;-66
2022/08/26 00:51:49;;;;;;;;;;;21.40;99.90;;;;;;5068303;28;19913;-66
2022/08/26 00:54:15;;;;;;;;;;;21.30;99.90;;;;;;5063570;28;20398;-66
2022/08/26 00:56:53;;;;;;;;;;;21.30;99.90;;;;;;5048764;28;19917;-68
2022/08/26 00:59:19;;;;;;;;;;;21.20;99.90;;;;;;5047421;28;20346;-65
2022/08/26 01:01:44;;;;;;;;;;;21.20;99.90;;;;;;5067367;28;19919;-65
2022/08/26 01:04:12;;;;;;;;;;;21.20;99.90;;;;;;5064352;28;19991;-65
2022/08/26 01:06:38;;;;;;;;;;;21.20;99.90;;;;;;5067536;28;20007;-65
2022/08/26 01:09:03;;;;;;;;;;;21.20;99.90;;;;;;5063482;28;20062;-65
2022/08/26 01:11:29;;;;;;;;;;;21.20;99.90;;;;;;5067877;28;19964;-65
2022/08/26 01:13:56;;;;;;;;;;;21.20;99.90;;;;;;5061734;28;19915;-65
2022/08/26 01:16:23;;;;;;;;;;;21.20;99.90;;;;;;5067734;28;19916;-66
2022/08/26 01:18:50;;;;;;;;;;;21.20;99.90;;;;;;5060774;28;19915;-65
2022/08/26 01:21:15;;;;;;;;;;;21.20;99.90;;;;;;5067745;28;19919;-66
2022/08/26 01:23:46;;;;;;;;;;;21.20;99.90;;;;;;5059428;28;19912;-65
2022/08/26 01:26:14;;;;;;;;;;;21.20;99.90;;;;;;5067672;28;20379;-66
2022/08/26 01:28:40;;;;;;;;;;;21.20;99.90;;;;;;5058963;28;19912;-66
2022/08/26 01:31:07;;;;;;;;;;;21.10;99.90;;;;;;5067860;28;20062;-66
2022/08/26 01:33:36;;;;;;;;;;;21.10;99.90;;;;;;5057697;28;19908;-66
2022/08/26 01:36:02;;;;;;;;;;;21.10;99.90;;;;;;5067858;28;19919;-66
2022/08/26 01:38:27;;;;;;;;;;;21.20;99.90;;;;;;5046539;28;19912;-66
2022/08/26 01:40:53;;;;;;;;;;;21.20;99.90;;;;;;5066895;28;19918;-66
2022/08/26 01:43:21;;;;;;;;;;;21.20;99.90;;;;;;5046449;28;19915;-66
2022/08/26 01:45:47;;;;;;;;;;;21.20;99.90;;;;;;5067256;28;19913;-68
2022/08/26 01:48:14;;;;;;;;;;;21.20;99.90;;;;;;5046382;28;19920;-67
2022/08/26 01:50:41;;;;;;;;;;;21.20;99.90;;;;;;5067083;28;20472;-67
2022/08/26 01:53:09;;;;;;;;;;;21.20;99.90;;;;;;5046266;28;20386;-67
2022/08/26 01:55:36;;;;;;;;;;;21.20;99.90;;;;;;5047576;28;19905;-67
2022/08/26 01:58:06;;;;;;;;;;;21.20;99.90;;;;;;5065069;28;20230;-67
2022/08/26 02:00:33;;;;;;;;;;;21.20;99.90;;;;;;5067664;28;19908;-67
2022/08/26 02:03:16;;;;;;;;;;;21.20;99.90;;;;;;5065411;28;19913;-67
2022/08/26 02:05:47;;;;;;;;;;;21.20;99.90;;;;;;5067622;28;20007;-67
2022/08/26 02:08:13;;;;;;;;;;;21.10;99.90;;;;;;5065463;28;19967;-67
2022/08/26 02:10:39;;;;;;;;;;;21.10;99.90;;;;;;5067427;28;19919;-67
2022/08/26 02:13:06;;;;;;;;;;;21.10;99.90;;;;;;5046143;28;19914;-65
2022/08/26 02:15:33;;;;;;;;;;;21.00;99.90;;;;;;5047301;28;20385;-65
2022/08/26 02:17:58;;;;;;;;;;;21.00;99.90;;;;;;5067733;28;19916;-65
2022/08/26 02:20:24;;;;;;;;;;;21.00;99.90;;;;;;5071145;28;19909;-66
2022/08/26 02:22:50;;;;;;;;;;;21.00;99.90;;;;;;5068847;28;19915;-66
2022/08/26 02:25:32;;;;;;;;;;;21.00;99.90;;;;;;5069077;28;19913;-66
2022/08/26 02:27:57;;;;;;;;;;;20.90;99.90;;;;;;5049334;28;19983;-65
2022/08/26 02:30:26;;;;;;;;;;;21.00;99.90;;;;;;5050861;28;20039;-66
2022/08/26 02:32:51;;;;;;;;;;;20.90;99.90;;;;;;5068098;28;20438;-66
2022/08/26 02:35:19;;;;;;;;;;;20.90;99.90;;;;;;5070943;28;20015;-66
2022/08/26 02:37:44;;;;;;;;;;;20.90;99.90;;;;;;5068360;28;19916;-66
2022/08/26 02:40:11;;;;;;;;;;;20.90;99.90;;;;;;5070760;28;19911;-67
2022/08/26 02:42:37;;;;;;;;;;;20.90;99.90;;;;;;5068242;28;19916;-67
2022/08/26 02:45:03;;;;;;;;;;;20.80;99.90;;;;;;5071104;28;20370;-67
2022/08/26 02:47:28;;;;;;;;;;;20.80;99.90;;;;;;5068381;28;20267;-66
2022/08/26 02:49:54;;;;;;;;;;;20.70;99.90;;;;;;5070163;28;19950;-64
2022/08/26 02:52:19;;;;;;;;;;;20.70;99.90;;;;;;5050925;28;20434;-67
2022/08/26 02:54:45;;;;;;;;;;;20.70;99.90;;;;;;5048600;28;20413;-66
2022/08/26 02:57:10;;;;;;;;;;;20.70;99.90;;;;;;5069631;28;19974;-67
2022/08/26 02:59:38;;;;;;;;;;;20.70;99.90;;;;;;5066817;28;20257;-67
2022/08/26 03:02:03;;;;;;;;;;;20.70;99.90;;;;;;5070462;28;19938;-65
2022/08/26 03:04:29;;;;;;;;;;;20.70;99.90;;;;;;5065952;28;19912;-65
2022/08/26 03:06:55;;;;;;;;;;;20.70;99.90;;;;;;5069921;28;19912;-65
2022/08/26 03:09:21;;;;;;;;;;;20.70;99.90;;;;;;5063092;28;20329;-64
2022/08/26 03:11:47;;;;;;;;;;;20.70;99.90;;;;;;5069842;28;20344;-66
2022/08/26 03:14:12;;;;;;;;;;;20.70;99.90;;;;;;5062735;28;19918;-65
2022/08/26 03:16:38;;;;;;;;;;;20.70;99.90;;;;;;5070076;28;20290;-65
2022/08/26 03:19:05;;;;;;;;;;;20.70;99.90;;;;;;5061743;28;19920;-63
2022/08/26 03:21:30;;;;;;;;;;;20.70;99.90;;;;;;5069823;28;19954;-65
2022/08/26 03:23:56;;;;;;;;;;;20.70;99.90;;;;;;5060278;28;19939;-65
2022/08/26 03:26:21;;;;;;;;;;;20.70;99.90;;;;;;5069631;28;19908;-63
2022/08/26 03:31:31;;;;;;;;;;;20.60;99.90;;;;;;5049955;28;19955;-64
2022/08/26 03:33:56;;;;;;;;;;;20.60;99.90;;;;;;5066870;28;19935;-64
2022/08/26 03:36:22;;;;;;;;;;;20.50;99.90;;;;;;5050192;28;19919;-63
2022/08/26 03:38:47;;;;;;;;;;;20.50;99.90;;;;;;5066769;28;20419;-67
2022/08/26 03:41:13;;;;;;;;;;;20.50;99.90;;;;;;5069263;28;19912;-63
2022/08/26 03:43:39;;;;;;;;;;;20.50;99.90;;;;;;5048095;28;19939;-63
2022/08/26 03:46:05;;;;;;;;;;;20.50;99.90;;;;;;5068746;28;20053;-64
2022/08/26 03:48:31;;;;;;;;;;;20.50;99.90;;;;;;5047969;28;19912;-64
2022/08/26 03:50:56;;;;;;;;;;;20.50;99.90;;;;;;5049290;28;19905;-64
2022/08/26 03:53:22;;;;;;;;;;;20.50;99.90;;;;;;5066410;28;19915;-65
2022/08/26 03:55:48;;;;;;;;;;;20.50;99.90;;;;;;5069130;28;19908;-65
2022/08/26 03:58:13;;;;;;;;;;;20.50;99.90;;;;;;5066692;28;19946;-64
2022/08/26 04:00:39;;;;;;;;;;;20.50;99.90;;;;;;5068937;28;19953;-64
2022/08/26 04:03:04;;;;;;;;;;;20.50;99.90;;;;;;5066826;28;19961;-65
2022/08/26 04:05:30;;;;;;;;;;;20.50;99.90;;;;;;5068983;28;20005;-64
2022/08/26 04:07:55;;;;;;;;;;;20.50;99.90;;;;;;5066731;28;20073;-65
2022/08/26 04:10:26;;;;;;;;;;;20.50;99.90;;;;;;5068944;28;19908;-65
2022/08/26 04:12:52;;;;;;;;;;;20.50;99.90;;;;;;5048264;28;19917;-64
2022/08/26 04:15:17;;;;;;;;;;;20.40;99.90;;;;;;5068891;28;19931;-64
2022/08/26 04:17:43;;;;;;;;;;;20.40;99.90;;;;;;5047921;28;19924;-64
2022/08/26 04:20:12;;;;;;;;;;;20.40;99.90;;;;;;5049255;28;20591;-65
2022/08/26 04:22:39;;;;;;;;;;;20.40;99.90;;;;;;5068571;28;19912;-65
2022/08/26 04:25:04;;;;;;;;;;;20.40;99.90;;;;;;5062833;28;19970;-63
2022/08/26 04:27:30;;;;;;;;;;;20.40;99.90;;;;;;5068480;28;19904;-63
2022/08/26 04:29:55;;;;;;;;;;;20.40;99.90;;;;;;5066307;28;20421;-63
2022/08/26 04:32:20;;;;;;;;;;;20.40;99.90;;;;;;5065272;28;20349;-63
2022/08/26 04:34:46;;;;;;;;;;;20.40;99.90;;;;;;5066170;28;20480;-63
2022/08/26 04:37:12;;;;;;;;;;;20.50;99.90;;;;;;5065427;28;19939;-64
2022/08/26 04:39:37;;;;;;;;;;;20.50;99.90;;;;;;5061630;28;20363;-63
2022/08/26 04:42:03;;;;;;;;;;;20.50;99.90;;;;;;5048875;28;19987;-63
2022/08/26 04:44:28;;;;;;;;;;;20.50;99.90;;;;;;5052394;28;19913;-64
2022/08/26 04:46:54;;;;;;;;;;;20.50;99.90;;;;;;5067879;28;19916;-63
2022/08/26 04:49:20;;;;;;;;;;;20.50;99.90;;;;;;5059945;28;20212;-63
2022/08/26 04:51:46;;;;;;;;;;;20.50;99.90;;;;;;5068084;28;19909;-63
2022/08/26 04:54:12;;;;;;;;;;;20.50;99.90;;;;;;5058797;28;19915;-63
2022/08/26 04:56:40;;;;;;;;;;;20.60;99.90;;;;;;5068375;28;20007;-63
2022/08/26 04:59:10;;;;;;;;;;;20.60;99.90;;;;;;5047201;28;19924;-64
2022/08/26 05:01:36;;;;;;;;;;;20.70;99.90;;;;;;5048391;28;19935;-63
2022/08/26 05:04:02;;;;;;;;;;;20.80;99.90;;;;;;5065538;28;19912;-63
2022/08/26 05:06:27;;;;;;;;;;;20.90;99.90;;;;;;5068269;28;19920;-67
2022/08/26 05:08:53;;;;;;;;;;;21.00;99.90;;;;;;5047073;28;19912;-66
2022/08/26 05:11:19;;;;;;;;;;;21.00;99.90;;;;;;5067572;28;19919;-62
2022/08/26 05:13:45;;;;;;;;;;;21.10;99.90;;;;;;5047002;28;19915;-61
2022/08/26 05:16:11;;;;;;;;;;;21.20;99.90;;;;;;5056381;28;19908;-62
2022/08/26 05:18:37;;;;;;;;;;;21.30;99.90;;;;;;5061495;28;20426;-62
2022/08/26 05:21:03;;;;;;;;;;;21.40;99.90;;;;;;5067578;28;19912;-63
2022/08/26 05:23:30;;;;;;;;;;;21.40;99.90;;;;;;5065350;28;19923;-62
2022/08/26 05:25:59;;;;;;;;;;;21.50;99.90;;;;;;5055353;28;19913;-65
2022/08/26 05:28:25;;;;;;;;;;;21.60;99.90;;;;;;5062007;28;19920;-66
2022/08/26 05:30:51;;;;;;;;;;;21.70;99.90;;;;;;5067647;28;19904;-66
2022/08/26 05:33:17;;;;;;;;;;;21.70;99.90;;;;;;5061946;28;19916;-62
2022/08/26 05:35:43;;;;;;;;;;;21.70;99.90;;;;;;5067649;28;19912;-65
2022/08/26 05:38:09;;;;;;;;;;;21.80;99.90;;;;;;5066007;28;19916;-65
2022/08/26 05:40:36;;;;;;;;;;;21.80;99.90;;;;;;5068099;28;20351;-65
2022/08/26 05:43:03;;;;;;;;;;;21.80;99.90;;;;;;5066086;28;19955;-63
2022/08/26 05:45:30;;;;;;;;;;;21.80;99.90;;;;;;5068122;28;19998;-65
2022/08/26 05:47:56;;;;;;;;;;;21.80;99.90;;;;;;5067631;28;20290;-64
2022/08/26 05:50:24;;;;;;;;;;;21.80;99.90;;;;;;5065752;28;20446;-64
2022/08/26 05:52:50;;;;;;;;;;;21.80;99.90;;;;;;5070845;28;19909;-64
2022/08/26 05:55:16;;;;;;;;;;;21.80;99.90;;;;;;5068923;28;19912;-63
2022/08/26 05:57:41;;;;;;;;;;;21.90;99.90;;;;;;5071688;28;19919;-63
2022/08/26 06:00:09;;;;;;;;;;;21.90;99.90;;;;;;5067686;28;19909;-64
2022/08/26 06:02:34;;;;;;;;;;;22.00;99.90;;;;;;5071507;28;19920;-64
2022/08/26 06:04:59;;;;;;;;;;;22.10;99.90;;;;;;5066929;28;19913;-66
2022/08/26 06:08:09;;;;;;;;;;;22.20;99.90;;;;;;5071479;28;19912;-64
2022/08/26 06:10:11;;;;;;;;;;;22.30;99.90;;;;;;5064315;28;20359;-63
2022/08/26 06:12:36;;;;;;;;;;;22.40;99.90;;;;;;5068584;28;19908;-65
2022/08/26 06:15:02;;;;;;;;;;;22.50;99.90;;;;;;5067687;28;20287;-65
2022/08/26 06:17:28;;;;;;;;;;;22.50;99.90;;;;;;5068114;28;19912;-65
2022/08/26 06:19:53;;;;;;;;;;;22.60;99.90;;;;;;5065814;28;19946;-65
2022/08/26 06:27:47;;;;;;;;;;;22.80;99.90;;;;;;5069190;28;19915;-65
2022/08/26 06:30:13;;;;;;;;;;;22.90;99.90;;;;;;5067067;28;19994;-77
2022/08/26 06:32:38;;;;;;;;;;;22.90;99.90;;;;;;5051773;28;20359;-66
2022/08/26 06:35:05;;;;;;;;;;;23.00;99.90;;;;;;5067519;28;20353;-67
2022/08/26 06:37:30;;;;;;;;;;;23.10;99.90;;;;;;5067701;28;19923;-65
2022/08/26 06:39:55;;;;;;;;;;;23.30;99.90;;;;;;5065953;28;19912;-69
2022/08/26 06:42:21;;;;;;;;;;;23.30;99.90;;;;;;5067586;28;20325;-69
2022/08/26 06:44:46;;;;;;;;;;;23.40;99.90;;;;;;5064962;28;20351;-68
2022/08/26 06:47:12;;;;;;;;;;;23.50;99.90;;;;;;5067138;28;20005;-68
2022/08/26 06:49:37;;;;;;;;;;;23.50;99.90;;;;;;5065554;28;19932;-64
2022/08/26 06:52:03;;;;;;;;;;;23.60;99.90;;;;;;5068842;28;20282;-65
2022/08/26 06:54:30;;;;;;;;;;;23.70;99.90;;;;;;5065086;28;19934;-65
2022/08/26 06:56:56;;;;;;;;;;;23.70;99.90;;;;;;5067307;28;19927;-66
2022/08/26 06:59:21;;;;;;;;;;;23.90;99.90;;;;;;5060871;28;20450;-66
2022/08/26 07:01:47;;;;;;;;;;;24.00;99.90;;;;;;5068471;28;19943;-64
2022/08/26 07:04:15;;;;;;;;;;;24.10;99.90;;;;;;5067481;28;20388;-64
2022/08/26 07:06:41;;;;;;;;;;;24.20;99.90;;;;;;5070596;28;19957;-64
2022/08/26 07:09:08;;;;;;;;;;;24.20;99.90;;;;;;5048721;28;19909;-64
2022/08/26 07:11:34;;;;;;;;;;;24.30;99.90;;;;;;5050256;28;19951;-64
2022/08/26 07:13:59;;;;;;;;;;;24.40;99.90;;;;;;5067739;28;19914;-64
2022/08/26 07:16:26;;;;;;;;;;;24.50;99.90;;;;;;5070599;28;19908;-64
2022/08/26 07:18:52;;;;;;;;;;;24.50;99.90;;;;;;5068292;28;19912;-66
2022/08/26 07:21:18;;;;;;;;;;;24.50;99.90;;;;;;5070722;28;19962;-66
2022/08/26 07:23:44;;;;;;;;;;;24.60;99.90;;;;;;5068237;28;19909;-66
2022/08/26 07:26:11;;;;;;;;;;;24.70;99.90;;;;;;5069868;28;20010;-66
2022/08/26 07:28:37;;;;;;;;;;;24.70;99.90;;;;;;5051611;28;19953;-64
2022/08/26 07:31:07;;;;;;;;;;;24.80;99.90;;;;;;5068328;28;19908;-64
2022/08/26 07:33:32;;;;;;;;;;;24.90;99.90;;;;;;5064400;28;19948;-65
2022/08/26 07:35:58;;;;;;;;;;;25.00;99.90;;;;;;5069517;28;19958;-63
2022/08/26 07:38:23;;;;;;;;;;;25.00;99.90;;;;;;5066728;28;19912;-64
2022/08/26 07:40:49;;;;;;;;;;;25.10;99.90;;;;;;5070070;28;19904;-65
2022/08/26 07:43:14;;;;;;;;;;;25.20;99.90;;;;;;5050799;28;19915;-65
2022/08/26 07:45:40;;;;;;;;;;;25.30;99.90;;;;;;5048632;28;20260;-66
2022/08/26 07:48:05;;;;;;;;;;;25.30;99.90;;;;;;5076575;28;19912;-72
2022/08/26 07:50:31;;;;;;;;;;;25.50;99.90;;;;;;5078893;28;19997;-75
2022/08/26 07:52:57;;;;;;;;;;;25.50;99.90;;;;;;5069920;28;19913;-66
2022/08/26 07:55:22;;;;;;;;;;;25.60;99.90;;;;;;5064776;28;19916;-65
2022/08/26 07:57:48;;;;;;;;;;;25.70;99.90;;;;;;5069299;28;19967;-65
2022/08/26 08:00:15;;;;;;;;;;;25.70;99.90;;;;;;5063220;28;19919;-65
2022/08/26 08:02:41;;;;;;;;;;;25.80;99.90;;;;;;5069464;28;19909;-65
2022/08/26 08:05:06;;;;;;;;;;;25.90;99.90;;;;;;5061778;28;19912;-65
2022/08/26 08:07:32;;;;;;;;;;;26.00;99.90;;;;;;5069161;28;19920;-79
2022/08/26 08:09:57;;;;;;;;;;;26.10;99.90;;;;;;5060278;28;19916;-65
2022/08/26 08:12:22;;;;;;;;;;;26.20;99.90;;;;;;5068989;28;20286;-65
2022/08/26 08:14:48;;;;;;;;;;;26.30;99.90;;;;;;5047777;28;20322;-65
2022/08/26 08:17:14;;;;;;;;;;;26.30;99.90;;;;;;5067876;28;19942;-65
2022/08/26 08:19:40;;;;;;;;;;;26.50;99.90;;;;;;5047771;28;19908;-67
2022/08/26 08:22:06;;;;;;;;;;;26.50;99.90;;;;;;5068003;28;19912;-66
2022/08/26 08:24:34;;;;;;;;;;;26.50;99.90;;;;;;5047364;28;19963;-64
2022/08/26 08:27:00;;;;;;;;;;;26.50;99.90;;;;;;5067900;28;19919;-65
2022/08/26 08:29:29;;;;;;;;;;;26.50;99.90;;;;;;5060810;28;19943;-66
2022/08/26 08:31:55;;;;;;;;;;;26.60;99.90;;;;;;5065926;28;19916;-65
2022/08/26 08:34:20;;;;;;;;;;;26.60;99.90;;;;;;5060851;28;20279;-66
2022/08/26 08:36:46;;;;;;;;;;;26.70;99.90;;;;;;5068197;28;20011;-65
2022/08/26 08:39:11;;;;;;;;;;;26.80;99.90;;;;;;5060707;28;19913;-65
2022/08/26 08:41:47;;;;;;;;;;;26.90;99.90;;;;;;5068509;28;19954;-64
2022/08/26 08:44:14;;;;;;;;;;;27.00;99.90;;;;;;5064892;28;19912;-65
2022/08/26 08:46:41;;;;;;;;;;;27.10;99.90;;;;;;5068058;28;19977;-64
2022/08/26 08:49:07;;;;;;;;;;;27.10;99.90;;;;;;5061408;28;19922;-67
2022/08/26 08:51:38;;;;;;;;;;;27.30;99.90;;;;;;5067223;28;20460;-66
2022/08/26 08:54:04;;;;;;;;;;;27.30;99.90;;;;;;5061500;28;19916;-64
2022/08/26 08:56:36;;;;;;;;;;;27.40;99.90;;;;;;5048403;28;19930;-63
2022/08/26 08:59:13;;;;;;;;;;;27.50;99.90;;;;;;5065307;28;20008;-64
2022/08/26 09:01:51;;;;;;;;;;;27.60;99.90;;;;;;5068349;28;19908;-64
2022/08/26 09:04:20;;;;;;;;;;;27.60;99.90;;;;;;5065963;28;20041;-64
2022/08/26 09:06:47;;;;;;;;;;;27.50;99.90;;;;;;5068281;28;19946;-64
2022/08/26 09:09:18;;;;;;;;;;;27.50;99.90;;;;;;5065901;28;19999;-64
2022/08/26 09:11:44;;;;;;;;;;;27.50;99.90;;;;;;5068137;28;19916;-64
2022/08/26 09:14:09;;;;;;;;;;;27.50;99.90;;;;;;5066029;28;19931;-64
2022/08/26 09:16:35;;;;;;;;;;;27.50;99.90;;;;;;5067976;28;20010;-64
2022/08/26 09:19:15;;;;;;;;;;;27.50;99.90;;;;;;5066058;28;20281;-63
2022/08/26 09:21:41;;;;;;;;;;;27.50;99.90;;;;;;5068174;28;19915;-63
2022/08/26 09:24:06;;;;;;;;;;;27.50;99.90;;;;;;5065661;28;19912;-64
2022/08/26 09:26:38;;;;;;;;;;;27.70;99.90;;;;;;5066879;28;20385;-64
2022/08/26 09:29:07;;;;;;;;;;;27.90;99.90;;;;;;5070027;28;19919;-64
2022/08/26 09:31:36;;;;;;;;;;;28.00;99.90;;;;;;5072038;28;19912;-64
2022/08/26 09:34:05;;;;;;;;;;;28.00;99.90;;;;;;5069584;28;19916;-64
2022/08/26 09:36:35;;;;;;;;;;;28.10;99.90;;;;;;5071866;28;19900;-64
2022/08/26 09:39:01;;;;;;;;;;;28.20;99.90;;;;;;5069704;28;19912;-64
2022/08/26 09:41:31;;;;;;;;;;;28.20;99.90;;;;;;5072144;28;19940;-63
2022/08/26 09:44:05;;;;;;;;;;;28.20;99.90;;;;;;5069718;28;20278;-63
2022/08/26 09:46:31;;;;;;;;;;;28.30;99.90;;;;;;5071837;28;19908;-64
2022/08/26 09:49:17;;;;;;;;;;;28.50;99.90;;;;;;5066506;28;19924;-65
2022/08/26 09:51:42;;;;;;;;;;;28.50;99.90;;;;;;5071650;28;19905;-65
2022/08/26 09:54:22;;;;;;;;;;;28.70;99.90;;;;;;5069784;28;20006;-65
2022/08/26 09:56:47;;;;;;;;;;;28.80;99.90;;;;;;5071654;28;20109;-65
2022/08/26 09:59:27;;;;;;;;;;;28.90;99.90;;;;;;5069339;28;20364;-65
2022/08/26 10:01:53;;;;;;;;;;;29.10;99.90;;;;;;5071596;28;20046;-65
2022/08/26 10:04:20;;;;;;;;;;;29.20;99.90;;;;;;5069413;28;19912;-65
2022/08/26 10:06:57;;;;;;;;;;;29.30;99.90;;;;;;5071435;28;19904;-65
2022/08/26 10:09:23;;;;;;;;;;;29.40;99.90;;;;;;5069196;28;20313;-65
2022/08/26 10:11:50;;;;;;;;;;;29.50;99.90;;;;;;5071417;28;19905;-64
2022/08/26 10:14:18;;;;;;;;;;;29.70;99.90;;;;;;5068927;28;19955;-65
2022/08/26 10:16:47;;;;;;;;;;;29.80;99.90;;;;;;5071135;28;19912;-65
2022/08/26 10:19:17;;;;;;;;;;;29.90;99.90;;;;;;5068934;28;19912;-64
2022/08/26 10:21:55;;;;;;;;;;;29.90;99.90;;;;;;5071155;28;19916;-65
2022/08/26 10:24:24;;;;;;;;;;;30.00;99.90;;;;;;5068743;28;19995;-64
2022/08/26 10:26:58;;;;;;;;;;;30.10;99.90;;;;;;5069938;28;19904;-65
2022/08/26 10:29:28;;;;;;;;;;;30.30;99.90;;;;;;5052866;28;19908;-65
2022/08/26 10:31:56;;;;;;;;;;;30.40;99.40;;;;;;5070953;28;19904;-64
2022/08/26 10:34:22;;;;;;;;;;;30.40;98.90;;;;;;5049453;28;19924;-65
2022/08/26 10:37:26;;;;;;;;;;;30.60;98.20;;;;;;5050949;28;19938;-65
2022/08/26 10:39:53;;;;;;;;;;;30.70;98.70;;;;;;5005717;28;19944;-65
2022/08/26 10:42:24;;;;;;;;;;;30.90;99.30;;;;;;5008454;28;19913;-65
2022/08/26 10:44:51;;;;;;;;;;;31.00;98.30;;;;;;5028039;28;19908;-65
2022/08/26 10:47:23;;;;;;;;;;;31.00;97.80;;;;;;5051096;28;19948;-65
2022/08/26 10:49:49;;;;;;;;;;;31.10;97.80;;;;;;5063514;28;19924;-65
2022/08/26 10:52:19;;;;;;;;;;;30.90;97.40;;;;;;5070349;28;19909;-65
2022/08/26 10:54:56;;;;;;;;;;;30.90;97.80;;;;;;5049000;28;19935;-66
2022/08/26 10:57:28;;;;;;;;;;;30.90;97.60;;;;;;5050408;28;19931;-65
2022/08/26 11:00:00;;;;;;;;;;;31.00;98.00;;;;;;5055844;28;19913;-65
2022/08/26 11:02:36;;;;;;;;;;;31.10;97.60;;;;;;5051421;28;19930;-65
2022/08/26 11:05:03;;;;;;;;;;;31.10;97.30;;;;;;5068532;28;19912;-65
2022/08/26 11:07:39;;;;;;;;;;;31.10;96.80;;;;;;5070661;28;19962;-65
2022/08/26 11:10:30;;;;;;;;;;;31.20;96.80;;;;;;5051417;28;19974;-65
2022/08/26 11:12:57;;;;;;;;;;;31.20;96.80;;;;;;5068372;28;19950;-64
2022/08/26 11:15:23;;;;;;;;;;;31.30;96.30;;;;;;5068398;28;19981;-64
2022/08/26 11:18:02;;;;;;;;;;;31.40;96.00;;;;;;5070356;28;20309;-65
2022/08/26 11:20:37;;;;;;;;;;;31.30;96.60;;;;;;5059875;28;19989;-65
2022/08/26 11:23:11;;;;;;;;;;;31.40;96.30;;;;;;5070177;28;19912;-64
2022/08/26 11:25:55;;;;;;;;;;;31.50;96.30;;;;;;5061137;28;19918;-65
2022/08/26 11:28:39;;;;;;;;;;;31.50;96.00;;;;;;5062520;28;19966;-71
2022/08/26 11:31:09;;;;;;;;;;;31.60;95.50;;;;;;5063863;28;19912;-64
2022/08/26 11:33:55;;;;;;;;;;;31.60;94.80;;;;;;5066390;28;20392;-65
2022/08/26 11:36:28;;;;;;;;;;;31.50;95.50;;;;;;5049906;28;19998;-65
2022/08/26 11:38:53;;;;;;;;;;;31.40;95.30;;;;;;5069513;28;19916;-65
2022/08/26 11:41:20;;;;;;;;;;;31.00;95.50;;;;;;5065426;28;20500;-64
2022/08/26 11:43:49;;;;;;;;;;;28.80;95.20;;;;;;5067929;28;19909;-68
2022/08/26 11:46:22;;;;;;;;;;;27.60;96.60;;;;;;5050789;28;19958;-65
2022/08/26 11:48:48;;;;;;;7.50;3.85;;;26.80;97.80;;;;;;5058223;28;20894;-66
2022/08/26 11:51:23;;;;;;;9.52;3.95;;;26.20;98.90;;;;;;5050247;28;20250;-67
2022/08/26 11:53:50;;;;;;;4.97;3.58;;;26.20;99.50;;;;;;5068533;28;20200;-66
2022/08/26 11:56:26;;;;;;;8.70;4.72;;;26.30;99.90;;;;;;5048909;28;20278;-66
2022/08/26 11:58:56;;;;;;;4.60;3.17;;;25.70;99.90;;;;;;5049855;28;20201;-66
2022/08/26 12:01:37;;;;;;;5.57;4.38;;;25.30;99.90;;;;;;5066657;28;20740;-66
2022/08/26 12:04:06;;;;;;;5.25;3.60;;;25.10;99.90;;;;;;5048864;28;20594;-65
2022/08/26 12:06:38;;;;;;;5.75;4.03;;;24.90;99.90;;;;;;5066438;28;20477;-66
2022/08/26 12:09:18;;;;;;;9.70;4.25;;;24.70;99.90;;;;;;5048663;28;20197;-65
2022/08/26 12:11:44;;;;;;;8.40;4.43;;;24.80;99.90;;;;;;5047396;28;20248;-65
2022/08/26 12:14:23;;;;;;;9.23;4.78;;;24.90;99.90;;;;;;5067529;28;20194;-65
2022/08/26 12:16:49;;;;;;;10.40;4.03;;;25.00;99.90;;;;;;5048468;28;20241;-66
2022/08/26 12:19:32;;;;;;;9.65;4.45;;;24.90;99.90;;;;;;5067280;28;20277;-65
2022/08/26 12:22:03;;;;;;;16.70;7.95;;;24.90;99.90;;;;;;5068337;28;20347;-65
2022/08/26 12:24:29;;;;;;;12.63;5.47;;;24.90;99.90;;;;;;5047621;28;20251;-65
2022/08/26 12:27:24;;;;;;;5.65;5.00;;;24.50;99.90;;;;;;5068157;28;20171;-65
2022/08/26 12:30:18;;;;;;;7.10;4.32;;;24.20;99.90;;;;;;5050549;28;20198;-67
2022/08/26 12:32:48;;;;;;;5.60;3.80;;;24.20;99.90;;;;;;5067970;28;20662;-67
2022/08/26 12:35:16;;;;;;;6.47;4.45;;;24.20;99.90;;;;;;5046004;28;20243;-68
2022/08/26 12:37:46;;;;;;;5.05;4.65;;;24.10;99.90;;;;;;5048117;28;20354;-66
2022/08/26 12:40:30;;;;;;;8.77;4.43;;;24.10;99.90;;;;;;5052763;28;20201;-66
2022/08/26 12:42:59;;;;;;;5.45;4.20;;;24.00;99.90;;;;;;5047849;28;20183;-66
2022/08/26 12:45:31;;;;;;;6.35;4.22;;;23.90;99.90;;;;;;5065549;28;20194;-66
2022/08/26 12:48:05;;;;;;;5.45;3.97;;;23.90;99.90;;;;;;5048147;28;20183;-66
2022/08/26 12:50:38;;;;;;;4.43;4.03;;;24.00;99.90;;;;;;5054912;28;20249;-65
2022/08/26 12:53:09;;;;;;;6.88;4.47;;;24.10;99.90;;;;;;5047913;28;20289;-67
2022/08/26 12:55:38;;;;;;;4.15;3.35;;;24.20;99.90;;;;;;5064730;28;20688;-66
2022/08/26 12:58:26;;;;;;;7.30;5.53;;;24.00;99.90;;;;;;5067530;28;20205;-66
2022/08/26 13:01:03;;;;;;;7.05;4.63;;;23.90;99.90;;;;;;5056836;28;20195;-66
2022/08/26 13:03:52;;;;;;;10.32;5.18;;;23.90;99.90;;;;;;5047513;28;20218;-66
2022/08/26 13:06:21;;;;;;;10.18;5.80;;;23.90;99.90;;;;;;5060908;28;20194;-66
2022/08/26 13:08:51;;;;;;;13.13;7.30;;;24.00;99.90;;;;;;5067597;28;20198;-65
2022/08/26 13:11:34;;;;;;;9.70;6.47;;;24.00;99.90;;;;;;5060636;28;20224;-65
2022/08/26 13:14:07;;;;;;;9.40;6.97;;;23.80;99.90;;;;;;5047488;28;20235;-65
2022/08/26 13:16:33;;;;;;;10.13;6.20;;;23.80;99.90;;;;;;5065023;28;20204;-64
2022/08/26 13:19:01;;;;;;;9.23;6.87;;;23.70;99.90;;;;;;5048118;28;20186;-65
2022/08/26 13:21:30;;;;;;;28.20;9.67;;;23.70;99.90;;;;;;5049409;28;20416;-64
2022/08/26 13:24:01;;;;;;;17.50;8.20;;;23.70;99.90;;;;;;5067003;28;20392;-65
2022/08/26 13:26:27;;;;;;;9.73;6.90;;;23.60;99.90;;;;;;5059029;28;20202;-66
2022/08/26 13:28:53;;;;;;;8.83;6.37;;;23.40;99.90;;;;;;5047132;28;20187;-64
2022/08/26 13:31:19;;;;;;;10.20;6.57;;;23.00;99.90;;;;;;5050337;28;20238;-64
2022/08/26 13:33:44;;;;;;;9.10;6.90;;;22.60;99.90;;;;;;5065335;28;21016;-65
2022/08/26 13:36:11;;;;;;;7.70;6.43;;;22.40;99.90;;;;;;5062220;28;20221;-64
2022/08/26 13:38:37;;;;;;;12.40;7.67;;;22.50;99.90;;;;;;5047550;28;20570;-76
2022/08/26 13:41:03;;;;;;;9.80;6.63;;;22.60;99.90;;;;;;5052993;28;20240;-62
2022/08/26 13:43:30;;;;;;;7.87;6.63;;;22.60;99.90;;;;;;5066159;28;20312;-63
2022/08/26 13:45:56;;;;;;;9.23;7.50;;;22.60;99.90;;;;;;5045539;28;20187;-63
2022/08/26 13:48:22;;;;;;;17.87;9.27;;;22.50;99.90;;;;;;5066235;28;20439;-63
2022/08/26 13:50:48;;;;;;;9.73;8.20;;;22.50;99.90;;;;;;5045596;28;20207;-63
2022/08/26 13:53:14;;;;;;;12.33;9.17;;;22.50;99.90;;;;;;5066090;28;20243;-63
2022/08/26 13:55:40;;;;;;;11.57;6.87;;;22.40;99.90;;;;;;5045782;28;20210;-63
2022/08/26 13:58:06;;;;;;;13.83;8.07;;;22.40;99.90;;;;;;5065433;28;20666;-65
2022/08/26 14:00:32;;;;;;;8.00;7.20;;;22.30;99.90;;;;;;5061994;28;20204;-64
2022/08/26 14:02:59;;;;;;;8.73;7.40;;;22.10;99.90;;;;;;5066885;28;20637;-65
2022/08/26 14:05:25;;;;;;;8.67;7.47;;;22.00;99.90;;;;;;5058373;28;20294;-64
2022/08/26 14:07:51;;;;;;;13.53;9.83;;;22.10;99.90;;;;;;5047188;28;20185;-64
2022/08/26 14:10:16;;;;;;;10.77;8.37;;;22.00;99.90;;;;;;5063575;28;20201;-63
2022/08/26 14:12:42;;;;;;;44.97;13.37;;;21.90;99.90;;;;;;5068033;28;20185;-67